createdAt,value
2019-04-07T00:01:47.778Z,39.39
2019-04-07T00:04:21.630Z,39.35
2019-04-07T00:06:55.450Z,39.33
2019-04-07T00:09:29.784Z,39.31
2019-04-07T00:12:03.655Z,39.30
2019-04-07T00:14:37.983Z,39.23
2019-04-07T00:17:12.149Z,39.12
2019-04-07T00:19:46.066Z,39.16
2019-04-07T00:22:19.965Z,39.11
2019-04-07T00:24:53.965Z,39.14
2019-04-07T00:27:27.719Z,39.09
2019-04-07T00:30:01.953Z,39.08
2019-04-07T00:32:35.814Z,39.06
2019-04-07T00:35:21.563Z,39.04
2019-04-07T00:37:45.280Z,39.04
2019-04-07T00:40:19.600Z,38.99
2019-04-07T00:42:53.486Z,38.99
2019-04-07T00:45:27.125Z,38.96
2019-04-07T00:48:02.038Z,38.94
2019-04-07T00:50:37.547Z,38.92
2019-04-07T00:53:11.181Z,38.89
2019-04-07T00:55:45.027Z,38.86
2019-04-07T00:58:19.199Z,38.84
2019-04-07T01:00:53.019Z,38.80
2019-04-07T01:03:27.588Z,38.80
2019-04-07T01:06:02.166Z,38.77
2019-04-07T01:08:36.127Z,38.73
2019-04-07T01:11:09.943Z,38.70
2019-04-07T01:13:43.680Z,38.67
2019-04-07T01:16:17.472Z,38.65
2019-04-07T01:18:51.337Z,38.65
2019-04-07T01:21:25.743Z,38.63
2019-04-07T01:23:59.346Z,38.54
2019-04-07T01:26:33.086Z,38.30
2019-04-07T01:29:08.077Z,38.34
2019-04-07T01:31:42.257Z,38.40
2019-04-07T01:34:16.110Z,38.42
2019-04-07T01:36:50.094Z,38.53
2019-04-07T01:39:24.096Z,38.61
2019-04-07T01:42:16.348Z,38.65
2019-04-07T01:45:07.541Z,38.66
2019-04-07T01:47:47.793Z,38.67
2019-04-07T01:50:39.467Z,38.64
2019-04-07T01:53:37.750Z,38.62
2019-04-07T01:56:26.320Z,38.58
2019-04-07T01:59:17.260Z,38.55
2019-04-07T02:02:06.018Z,38.51
2019-04-07T02:04:51.347Z,38.49
2019-04-07T02:07:33.754Z,38.44
2019-04-07T02:10:32.982Z,38.40
2019-04-07T02:13:27.499Z,38.40
2019-04-07T02:16:20.397Z,38.35
2019-04-07T02:19:13.033Z,38.33
2019-04-07T02:22:08.696Z,38.30
2019-04-07T02:24:58.716Z,38.25
2019-04-07T02:27:45.857Z,38.23
2019-04-07T02:30:44.779Z,38.21
2019-04-07T02:33:42.498Z,38.17
2019-04-07T02:36:35.772Z,38.15
2019-04-07T02:39:39.165Z,38.13
2019-04-07T02:42:40.894Z,38.11
2019-04-07T02:45:32.279Z,38.06
2019-04-07T02:48:24.167Z,38.05
2019-04-07T02:51:22.909Z,38.00
2019-04-07T02:54:34.584Z,38.00
2019-04-07T02:57:31.908Z,37.98
2019-04-07T03:00:24.642Z,37.94
2019-04-07T03:03:36.837Z,37.91
2019-04-07T03:06:47.119Z,37.90
2019-04-07T03:09:31.086Z,37.86
2019-04-07T03:12:25.136Z,37.82
2019-04-07T03:15:06.977Z,37.82
2019-04-07T03:17:54.344Z,37.77
2019-04-07T03:20:49.526Z,37.74
2019-04-07T03:23:37.198Z,37.71
2019-04-07T03:26:47.906Z,37.70
2019-04-07T03:29:33.338Z,37.68
2019-04-07T03:32:27.758Z,37.65
2019-04-07T03:35:32.842Z,37.61
2019-04-07T03:38:27.458Z,37.59
2019-04-07T03:41:16.231Z,37.58
2019-04-07T03:44:01.435Z,37.52
2019-04-07T03:46:58.945Z,37.47
2019-04-07T03:49:47.956Z,37.46
2019-04-07T03:52:56.520Z,37.46
2019-04-07T03:55:49.511Z,37.43
2019-04-07T03:58:40.106Z,37.40
2019-04-07T04:01:33.136Z,37.38
2019-04-07T04:04:31.671Z,37.35
2019-04-07T04:07:28.422Z,37.33
2019-04-07T04:10:12.301Z,37.29
2019-04-07T04:13:14.379Z,37.24
2019-04-07T04:15:54.264Z,37.26
2019-04-07T04:18:28.652Z,37.19
2019-04-07T04:21:03.497Z,37.18
2019-04-07T04:23:40.050Z,37.16
2019-04-07T04:26:15.147Z,37.11
2019-04-07T04:28:48.964Z,37.14
2019-04-07T04:31:22.921Z,37.13
2019-04-07T04:33:56.658Z,37.07
2019-04-07T04:36:31.404Z,37.06
2019-04-07T04:39:07.063Z,37.04
2019-04-07T04:41:42.606Z,37.01
2019-04-07T04:44:16.589Z,37.02
2019-04-07T04:46:50.366Z,36.99
2019-04-07T04:49:24.074Z,36.96
2019-04-07T04:51:58.655Z,36.93
2019-04-07T04:54:33.407Z,36.91
2019-04-07T04:57:09.132Z,36.88
2019-04-07T04:59:42.939Z,36.89
2019-04-07T05:02:17.151Z,36.85
2019-04-07T05:04:51.588Z,36.87
2019-04-07T05:07:25.336Z,36.83
2019-04-07T05:09:59.996Z,36.80
2019-04-07T05:12:33.988Z,36.80
2019-04-07T05:15:09.726Z,36.76
2019-04-07T05:17:44.635Z,36.75
2019-04-07T05:20:19.472Z,36.76
2019-04-07T05:22:53.449Z,36.75
2019-04-07T05:25:27.463Z,36.67
2019-04-07T05:28:01.271Z,36.73
2019-04-07T05:30:36.498Z,36.73
2019-04-07T05:33:11.054Z,36.73
2019-04-07T05:35:44.993Z,36.71
2019-04-07T05:38:19.143Z,36.67
2019-04-07T05:40:53.122Z,36.64
2019-04-07T05:43:27.383Z,36.66
2019-04-07T05:46:01.713Z,36.67
2019-04-07T05:48:35.610Z,36.66
2019-04-07T05:51:09.778Z,36.64
2019-04-07T05:53:46.311Z,36.61
2019-04-07T05:56:19.755Z,36.59
2019-04-07T05:58:53.804Z,36.92
2019-04-07T06:01:27.629Z,36.67
2019-04-07T06:04:02.432Z,36.78
2019-04-07T06:06:36.812Z,36.70
2019-04-07T06:09:12.122Z,36.86
2019-04-07T06:11:46.440Z,36.81
2019-04-07T06:14:20.530Z,38.69
2019-04-07T06:16:55.482Z,37.50
2019-04-07T06:19:29.506Z,37.29
2019-04-07T06:22:03.447Z,38.32
2019-04-07T06:24:37.127Z,37.47
2019-04-07T06:27:11.019Z,37.35
2019-04-07T06:29:44.801Z,37.33
2019-04-07T06:32:19.225Z,37.44
2019-04-07T06:34:54.094Z,37.82
2019-04-07T06:37:29.461Z,37.75
2019-04-07T06:40:03.571Z,38.04
2019-04-07T06:42:37.585Z,37.62
2019-04-07T06:45:13.165Z,37.64
2019-04-07T06:47:50.725Z,38.10
2019-04-07T06:51:00.477Z,37.69
2019-04-07T06:53:48.773Z,37.64
2019-04-07T06:56:40.116Z,37.77
2019-04-07T06:59:37.278Z,37.61
2019-04-07T07:02:36.825Z,37.47
2019-04-07T07:05:28.800Z,37.34
2019-04-07T07:08:12.634Z,37.70
2019-04-07T07:11:10.342Z,37.45
2019-04-07T07:14:00.353Z,37.44
2019-04-07T07:17:02.953Z,37.28
2019-04-07T07:19:56.626Z,37.29
2019-04-07T07:22:40.275Z,37.41
2019-04-07T07:25:13.504Z,37.59
2019-04-07T07:27:47.797Z,37.44
2019-04-07T07:30:23.486Z,37.41
2019-04-07T07:32:57.334Z,37.01
2019-04-07T07:35:32.255Z,36.92
2019-04-07T07:38:06.145Z,37.06
2019-04-07T07:40:40.597Z,38.23
2019-04-07T07:43:14.462Z,38.17
2019-04-07T07:45:48.662Z,37.62
2019-04-07T07:48:26.224Z,37.39
2019-04-07T07:50:58.033Z,37.35
2019-04-07T07:53:32.752Z,37.39
2019-04-07T07:56:10.725Z,37.55
2019-04-07T07:58:42.606Z,37.64
2019-04-07T08:01:17.764Z,37.78
2019-04-07T08:03:53.033Z,37.88
2019-04-07T08:06:27.164Z,37.91
2019-04-07T08:09:09.836Z,38.10
2019-04-07T08:11:37.305Z,37.86
2019-04-07T08:14:14.517Z,37.87
2019-04-07T08:16:46.540Z,37.75
2019-04-07T08:19:21.097Z,37.74
2019-04-07T08:21:55.255Z,37.75
2019-04-07T08:24:29.316Z,37.98
2019-04-07T08:27:05.123Z,37.92
2019-04-07T08:29:39.805Z,37.76
2019-04-07T08:32:13.635Z,37.66
2019-04-07T08:34:47.314Z,37.66
2019-04-07T08:37:21.885Z,37.64
2019-04-07T08:39:56.983Z,37.64
2019-04-07T08:42:31.476Z,37.68
2019-04-07T08:45:05.767Z,37.69
2019-04-07T08:47:40.225Z,37.67
2019-04-07T08:50:15.167Z,37.67
2019-04-07T08:52:48.909Z,37.67
2019-04-07T08:55:23.624Z,37.64
2019-04-07T08:58:00.079Z,37.63
2019-04-07T09:00:34.908Z,37.61
2019-04-07T09:03:13.196Z,37.57
2019-04-07T09:05:45.610Z,37.58
2019-04-07T09:08:20.337Z,37.54
2019-04-07T09:11:12.955Z,37.52
2019-04-07T09:13:51.500Z,37.50
2019-04-07T09:16:53.240Z,37.47
2019-04-07T09:19:36.070Z,37.44
2019-04-07T09:22:29.705Z,37.42
2019-04-07T09:25:28.297Z,37.40
2019-04-07T09:28:11.225Z,37.38
2019-04-07T09:31:23.315Z,37.38
2019-04-07T09:34:21.170Z,37.40
2019-04-07T09:37:04.463Z,37.39
2019-04-07T09:40:03.084Z,37.39
2019-04-07T09:42:43.625Z,37.37
2019-04-07T09:45:25.427Z,37.32
2019-04-07T09:48:24.013Z,37.30
2019-04-07T09:51:15.451Z,37.31
2019-04-07T09:54:08.125Z,37.21
2019-04-07T09:56:52.795Z,37.23
2019-04-07T09:59:42.866Z,37.24
2019-04-07T10:02:35.465Z,37.18
2019-04-07T10:05:26.032Z,37.18
2019-04-07T10:08:28.192Z,37.12
2019-04-07T10:11:23.882Z,37.22
2019-04-07T10:14:13.872Z,37.18
2019-04-07T10:16:58.018Z,37.05
2019-04-07T10:19:50.062Z,37.09
2019-04-07T10:22:34.066Z,37.08
2019-04-07T10:25:28.948Z,37.09
2019-04-07T10:28:13.753Z,37.26
2019-04-07T10:30:55.067Z,37.17
2019-04-07T10:33:57.199Z,36.37
2019-04-07T10:36:49.152Z,35.98
2019-04-07T10:39:33.678Z,36.32
2019-04-07T10:42:19.009Z,36.03
2019-04-07T10:45:11.931Z,36.14
2019-04-07T10:47:58.372Z,35.88
2019-04-07T10:51:00.632Z,35.67
2019-04-07T10:53:52.748Z,35.69
2019-04-07T10:56:37.343Z,35.72
2019-04-07T10:59:17.480Z,35.06
2019-04-07T11:02:16.865Z,35.10
2019-04-07T11:05:15.612Z,35.88
2019-04-07T11:08:23.489Z,36.02
2019-04-07T11:11:33.115Z,36.10
2019-04-07T11:14:16.250Z,36.09
2019-04-07T11:17:12.386Z,36.04
2019-04-07T11:20:08.318Z,36.02
2019-04-07T11:23:18.934Z,35.93
2019-04-07T11:26:18.059Z,35.84
2019-04-07T11:28:56.832Z,35.75
2019-04-07T11:31:45.013Z,35.65
2019-04-07T11:34:31.438Z,35.59
2019-04-07T11:37:14.328Z,35.54
2019-04-07T11:40:07.003Z,35.48
2019-04-07T11:42:55.840Z,35.35
2019-04-07T11:45:39.111Z,35.15
2019-04-07T11:48:39.423Z,34.91
2019-04-07T11:51:22.699Z,34.79
2019-04-07T11:54:27.329Z,34.28
2019-04-07T11:57:17.078Z,34.23
2019-04-07T12:00:14.483Z,34.44
2019-04-07T12:03:01.093Z,34.09
2019-04-07T12:05:46.612Z,34.75
2019-04-07T12:08:36.216Z,34.51
2019-04-07T12:11:46.438Z,34.62
2019-04-07T12:14:45.480Z,34.58
2019-04-07T12:17:49.134Z,34.53
2019-04-07T12:20:39.166Z,34.19
2019-04-07T12:23:29.096Z,34.22
2019-04-07T12:26:12.846Z,34.26
2019-04-07T12:29:12.407Z,34.14
2019-04-07T12:32:18.128Z,34.58
2019-04-07T12:35:20.320Z,34.36
2019-04-07T12:38:16.572Z,34.42
2019-04-07T12:41:15.130Z,34.67
2019-04-07T12:44:08.179Z,34.61
2019-04-07T12:46:55.735Z,34.68
2019-04-07T12:49:47.380Z,34.80
2019-04-07T12:52:38.844Z,35.09
2019-04-07T12:55:19.476Z,35.22
2019-04-07T12:58:11.747Z,35.17
2019-04-07T13:00:59.929Z,34.96
2019-04-07T13:03:41.606Z,34.89
2019-04-07T13:06:33.299Z,34.91
2019-04-07T13:09:29.640Z,34.82
2019-04-07T13:12:38.746Z,34.65
2019-04-07T13:15:32.222Z,35.12
2019-04-07T13:18:37.226Z,35.06
2019-04-07T13:21:34.101Z,35.09
2019-04-07T13:24:28.375Z,35.12
2019-04-07T13:27:09.135Z,35.13
2019-04-07T13:30:01.815Z,35.15
2019-04-07T13:32:50.019Z,35.16
2019-04-07T13:35:42.098Z,35.15
2019-04-07T13:38:26.256Z,35.15
2019-04-07T13:41:09.416Z,35.12
2019-04-07T13:43:53.491Z,35.40
2019-04-07T13:46:38.765Z,35.22
2019-04-07T13:49:41.350Z,35.24
2019-04-07T13:52:25.113Z,36.13
2019-04-07T13:55:17.350Z,35.56
2019-04-07T13:58:12.940Z,36.02
2019-04-07T14:01:08.475Z,36.00
2019-04-07T14:04:00.222Z,35.87
2019-04-07T14:06:45.911Z,35.81
2019-04-07T14:09:37.431Z,35.91
2019-04-07T14:12:32.353Z,36.42
2019-04-07T14:15:24.750Z,36.37
2019-04-07T14:18:24.527Z,36.01
2019-04-07T14:21:09.410Z,35.92
2019-04-07T14:24:02.536Z,35.75
2019-04-07T14:26:48.999Z,36.11
2019-04-07T14:29:41.743Z,35.69
2019-04-07T14:32:40.470Z,35.83
2019-04-07T14:35:51.383Z,35.60
2019-04-07T14:38:50.893Z,36.26
2019-04-07T14:41:31.910Z,36.82
2019-04-07T14:44:40.167Z,36.79
2019-04-07T14:47:38.952Z,36.37
2019-04-07T14:50:28.467Z,36.55
2019-04-07T14:53:18.173Z,36.24
2019-04-07T14:56:20.657Z,36.11
2019-04-07T14:59:29.589Z,36.83
2019-04-07T15:02:04.216Z,36.70
2019-04-07T15:04:54.359Z,36.73
2019-04-07T15:07:48.866Z,36.33
2019-04-07T15:10:28.899Z,36.12
2019-04-07T15:13:05.619Z,36.35
2019-04-07T15:15:39.997Z,36.18
2019-04-07T15:18:13.730Z,36.04
2019-04-07T15:20:47.424Z,35.96
2019-04-07T15:23:21.810Z,35.97
2019-04-07T15:25:55.469Z,35.88
2019-04-07T15:28:31.419Z,35.81
2019-04-07T15:31:04.740Z,36.12
2019-04-07T15:33:38.519Z,35.90
2019-04-07T15:36:12.891Z,35.84
2019-04-07T15:38:47.569Z,36.26
2019-04-07T15:41:22.210Z,36.81
2019-04-07T15:43:55.916Z,37.09
2019-04-07T15:46:29.843Z,36.71
2019-04-07T15:49:04.076Z,36.95
2019-04-07T15:51:39.897Z,36.69
2019-04-07T15:54:14.605Z,36.57
2019-04-07T15:56:50.170Z,36.27
2019-04-07T15:59:24.869Z,36.14
2019-04-07T16:01:58.763Z,36.09
2019-04-07T16:04:34.760Z,36.03
2019-04-07T16:07:26.256Z,35.97
2019-04-07T16:10:01.923Z,35.93
2019-04-07T16:12:53.728Z,35.93
2019-04-07T16:15:38.409Z,35.91
2019-04-07T16:18:12.624Z,35.92
2019-04-07T16:20:46.667Z,35.95
2019-04-07T16:23:20.942Z,35.99
2019-04-07T16:25:58.367Z,36.01
2019-04-07T16:28:31.884Z,35.98
2019-04-07T16:31:06.559Z,36.00
2019-04-07T16:33:41.274Z,35.93
2019-04-07T16:36:15.039Z,36.08
2019-04-07T16:38:48.892Z,35.97
2019-04-07T16:41:23.660Z,35.99
2019-04-07T16:43:57.528Z,36.06
2019-04-07T16:46:31.585Z,35.91
2019-04-07T16:49:05.477Z,36.21
2019-04-07T16:51:39.330Z,36.25
2019-04-07T16:54:13.270Z,36.17
2019-04-07T16:56:53.166Z,36.29
2019-04-07T16:59:43.426Z,36.45
2019-04-07T17:02:19.245Z,36.41
2019-04-07T17:05:01.367Z,36.39
2019-04-07T17:07:55.537Z,36.36
2019-04-07T17:10:32.787Z,36.38
2019-04-07T17:13:19.876Z,37.00
2019-04-07T17:16:05.894Z,37.20
2019-04-07T17:18:57.424Z,36.48
2019-04-07T17:21:49.073Z,36.76
2019-04-07T17:24:24.929Z,37.01
2019-04-07T17:26:58.330Z,36.91
2019-04-07T17:29:32.154Z,37.05
2019-04-07T17:32:06.049Z,36.93
2019-04-07T17:34:41.733Z,36.82
2019-04-07T17:37:13.255Z,36.73
2019-04-07T17:39:51.563Z,37.40
2019-04-07T17:42:28.043Z,37.08
2019-04-07T17:45:21.280Z,37.06
2019-04-07T17:48:14.716Z,36.99
2019-04-07T17:51:15.443Z,37.17
2019-04-07T17:54:07.863Z,36.58
2019-04-07T17:57:05.283Z,36.32
2019-04-07T17:59:57.138Z,36.17
2019-04-07T18:02:44.141Z,36.11
2019-04-07T18:05:41.432Z,35.90
2019-04-07T18:08:34.284Z,35.83
2019-04-07T18:11:30.147Z,35.56
2019-04-07T18:14:30.015Z,34.78
2019-04-07T18:17:26.785Z,35.45
2019-04-07T18:20:19.968Z,35.33
2019-04-07T18:23:24.056Z,35.07
2019-04-07T18:26:14.420Z,35.58
2019-04-07T18:29:14.741Z,34.94
2019-04-07T18:32:09.789Z,34.95
2019-04-07T18:34:58.397Z,34.88
2019-04-07T18:37:49.228Z,34.75
2019-04-07T18:40:31.853Z,34.49
2019-04-07T18:43:27.817Z,34.36
2019-04-07T18:46:39.951Z,34.47
2019-04-07T18:49:25.917Z,34.94
2019-04-07T18:52:14.074Z,34.56
2019-04-07T18:55:04.331Z,34.25
2019-04-07T18:57:52.809Z,34.21
2019-04-07T19:00:52.198Z,33.65
2019-04-07T19:03:51.940Z,33.16
2019-04-07T19:06:31.267Z,33.78
2019-04-07T19:09:18.868Z,33.75
2019-04-07T19:12:18.882Z,33.84
2019-04-07T19:15:09.084Z,33.74
2019-04-07T19:18:05.799Z,33.83
2019-04-07T19:20:58.940Z,33.76
2019-04-07T19:23:49.081Z,33.50
2019-04-07T19:26:41.064Z,33.50
2019-04-07T19:29:32.328Z,33.55
2019-04-07T19:32:25.059Z,33.45
2019-04-07T19:35:21.597Z,33.37
2019-04-07T19:38:19.867Z,33.21
2019-04-07T19:41:11.044Z,33.29
2019-04-07T19:43:56.521Z,33.15
2019-04-07T19:46:48.721Z,33.16
2019-04-07T19:49:45.335Z,33.05
2019-04-07T19:52:52.952Z,32.93
2019-04-07T19:55:42.180Z,32.91
2019-04-07T19:58:39.850Z,32.80
2019-04-07T20:01:20.766Z,32.88
2019-04-07T20:04:12.979Z,32.98
2019-04-07T20:07:15.817Z,32.93
2019-04-07T20:10:07.415Z,32.95
2019-04-07T20:12:52.628Z,32.92
2019-04-07T20:15:56.154Z,32.82
2019-04-07T20:18:59.378Z,32.76
2019-04-07T20:21:55.000Z,32.76
2019-04-07T20:24:48.833Z,32.69
2019-04-07T20:27:31.857Z,32.70
2019-04-07T20:30:37.807Z,32.65
2019-04-07T20:33:29.884Z,32.64
2019-04-07T20:36:29.682Z,32.56
2019-04-07T20:39:22.465Z,32.64
2019-04-07T20:42:15.936Z,32.56
2019-04-07T20:45:19.272Z,32.53
2019-04-07T20:48:10.362Z,32.63
2019-04-07T20:51:02.560Z,32.52
2019-04-07T20:54:02.342Z,32.41
2019-04-07T20:56:52.025Z,32.44
2019-04-07T20:59:55.559Z,32.34
2019-04-07T21:02:45.392Z,32.30
2019-04-07T21:05:37.753Z,32.21
2019-04-07T21:08:43.451Z,32.15
2019-04-07T21:11:31.390Z,32.11
2019-04-07T21:14:11.940Z,32.06
2019-04-07T21:17:10.836Z,32.00
2019-04-07T21:20:05.375Z,31.91
2019-04-07T21:22:54.212Z,31.88
2019-04-07T21:25:45.705Z,31.77
2019-04-07T21:28:26.785Z,32.10
2019-04-07T21:31:26.129Z,32.10
2019-04-07T21:34:33.862Z,32.26
2019-04-07T21:37:24.831Z,32.26
2019-04-07T21:40:20.906Z,32.29
2019-04-07T21:43:14.214Z,32.35
2019-04-07T21:46:11.095Z,32.41
2019-04-07T21:49:04.056Z,32.42
2019-04-07T21:51:53.002Z,32.43
2019-04-07T21:54:38.808Z,32.28
2019-04-07T21:57:30.142Z,32.27
2019-04-07T22:00:16.702Z,32.76
2019-04-07T22:03:08.730Z,32.47
2019-04-07T22:05:49.725Z,32.51
2019-04-07T22:08:34.758Z,32.49
2019-04-07T22:11:09.262Z,32.54
2019-04-07T22:13:43.221Z,32.48
2019-04-07T22:16:16.990Z,32.48
2019-04-07T22:18:51.254Z,32.44
2019-04-07T22:21:25.724Z,32.43
2019-04-07T22:24:01.301Z,32.36
2019-04-07T22:26:35.100Z,32.39
2019-04-07T22:29:09.723Z,32.45
2019-04-07T22:31:46.696Z,32.51
2019-04-07T22:34:22.653Z,32.59
2019-04-07T22:36:56.598Z,32.62
2019-04-07T22:39:31.134Z,32.69
2019-04-07T22:42:06.380Z,32.78
2019-04-07T22:44:40.449Z,32.86
2019-04-07T22:47:15.408Z,32.98
2019-04-07T22:49:50.619Z,33.02
2019-04-07T22:52:24.440Z,33.15
2019-04-07T22:55:01.092Z,33.37
2019-04-07T22:57:33.598Z,33.52
2019-04-07T23:00:10.795Z,33.57
2019-04-07T23:02:44.746Z,33.73
2019-04-07T23:05:19.119Z,33.71
2019-04-07T23:07:53.201Z,33.90
2019-04-07T23:10:27.389Z,33.96
2019-04-07T23:13:01.970Z,34.11
2019-04-07T23:15:41.078Z,34.08
2019-04-07T23:18:11.605Z,34.18
2019-04-07T23:20:45.874Z,34.14
2019-04-07T23:23:19.884Z,34.20
2019-04-07T23:25:53.653Z,34.26
2019-04-07T23:28:27.267Z,34.24
2019-04-07T23:31:01.325Z,34.18
2019-04-07T23:33:34.960Z,34.31
2019-04-07T23:36:09.424Z,34.25
2019-04-07T23:38:43.159Z,34.32
2019-04-07T23:41:18.017Z,34.37
2019-04-07T23:43:52.604Z,34.29
2019-04-07T23:46:27.278Z,34.36
2019-04-07T23:49:02.313Z,34.44
2019-04-07T23:51:36.064Z,34.35
2019-04-07T23:54:14.316Z,34.43
2019-04-07T23:56:48.241Z,34.44
2019-04-07T23:59:22.827Z,34.47
